Time;durP1;ratioP1;P1;durP2;ratioP2;P2;SDS_P1;SDS_P2;PMS_P1;PMS_P2;Temp;Humidity;BMP_temperature;BMP_pressure;BME280_temperature;BME280_humidity;BME280_pressure;Samples;Min_cycle;Max_cycle;Signal;HPM_P1;HPM_P2
2023/07/18 00:00:17;;;;;;;4.35;2.13;;;;;;;14.68;100.00;101822.88;6250631;28;20060;-78
2023/07/18 00:03:19;;;;;;;10.15;2.72;;;;;;;14.59;100.00;101821.56;6254618;28;20049;-78
2023/07/18 00:06:24;;;;;;;6.13;2.75;;;;;;;14.58;100.00;101822.50;6255654;28;20049;-77
2023/07/18 00:09:27;;;;;;;8.68;3.00;;;;;;;14.59;100.00;101823.34;6255391;28;20373;-78
2023/07/18 00:12:28;;;;;;;7.30;2.75;;;;;;;14.60;100.00;101820.63;6255254;28;20041;-78
2023/07/18 00:15:30;;;;;;;4.75;2.30;;;;;;;14.59;100.00;101820.72;6255395;28;20056;-78
2023/07/18 00:18:31;;;;;;;7.28;2.50;;;;;;;14.59;100.00;101824.19;6255210;28;20049;-78
2023/07/18 00:21:33;;;;;;;4.85;2.58;;;;;;;14.56;100.00;101821.72;6255031;28;20053;-78
2023/07/18 00:24:35;;;;;;;8.43;2.78;;;;;;;14.56;100.00;101826.16;6254778;28;20053;-78
2023/07/18 00:27:38;;;;;;;5.80;2.53;;;;;;;14.55;100.00;101825.31;6255021;28;20453;-78
2023/07/18 00:30:39;;;;;;;6.78;2.28;;;;;;;14.52;100.00;101828.09;6254896;28;20464;-78
2023/07/18 00:33:41;;;;;;;5.78;2.17;;;;;;;14.51;100.00;101823.75;6254775;28;20056;-78
2023/07/18 00:36:42;;;;;;;3.72;2.33;;;;;;;14.50;100.00;101815.91;6254836;28;20449;-77
2023/07/18 00:39:45;;;;;;;8.25;2.45;;;;;;;14.41;100.00;101810.13;6254983;28;20049;-78
2023/07/18 00:42:48;;;;;;;4.10;2.08;;;;;;;14.34;100.00;101805.22;6254122;28;20053;-78
2023/07/18 00:45:50;;;;;;;6.63;2.30;;;;;;;14.30;100.00;101807.16;6254829;28;20057;-78
2023/07/18 00:48:52;;;;;;;3.75;2.45;;;;;;;14.23;100.00;101802.28;6254657;28;20049;-78
2023/07/18 00:51:53;;;;;;;6.45;2.40;;;;;;;14.12;100.00;101806.31;6253453;28;20056;-77
2023/07/18 00:54:56;;;;;;;11.07;2.55;;;;;;;14.10;100.00;101805.56;6254167;28;20327;-78
2023/07/18 00:57:59;;;;;;;12.55;2.45;;;;;;;14.11;100.00;101796.69;6254099;28;20057;-78
2023/07/18 01:01:01;;;;;;;9.65;3.40;;;;;;;14.08;100.00;101804.81;6254517;28;20053;-77
2023/07/18 01:04:03;;;;;;;5.55;2.05;;;;;;;14.11;100.00;101809.06;6253710;28;20462;-78
2023/07/18 01:07:05;;;;;;;4.57;2.30;;;;;;;14.06;100.00;101804.00;6254247;28;20056;-78
2023/07/18 01:10:23;;;;;;;6.30;2.63;;;;;;;14.02;100.00;101797.16;6254125;28;20049;-77
2023/07/18 01:13:24;;;;;;;7.85;2.53;;;;;;;13.96;100.00;101793.03;6253888;28;20125;-77
2023/07/18 01:16:26;;;;;;;5.68;2.50;;;;;;;13.92;100.00;101788.00;6253945;28;20060;-78
2023/07/18 01:19:28;;;;;;;8.30;2.72;;;;;;;13.90;100.00;101790.72;6253871;28;20056;-78
2023/07/18 01:22:31;;;;;;;4.38;2.33;;;;;;;13.88;100.00;101786.44;6253274;28;20353;-78
2023/07/18 01:25:33;;;;;;;4.35;2.70;;;;;;;13.78;100.00;101785.19;6254132;28;20060;-78
2023/07/18 01:28:34;;;;;;;6.90;2.70;;;;;;;13.74;100.00;101789.78;6253660;28;20041;-78
2023/07/18 01:31:36;;;;;;;5.60;2.35;;;;;;;13.77;100.00;101791.41;6253414;28;20049;-78
2023/07/18 01:34:37;;;;;;;5.78;2.72;;;;;;;13.76;100.00;101784.41;6253214;28;20464;-78
2023/07/18 01:37:40;;;;;;;11.00;3.00;;;;;;;13.65;100.00;101785.81;6253396;28;20057;-78
2023/07/18 01:40:41;;;;;;;5.88;2.50;;;;;;;13.61;100.00;101775.47;6253351;28;20050;-78
2023/07/18 01:43:43;;;;;;;4.47;2.40;;;;;;;13.59;100.00;101786.13;6252721;28;20053;-78
2023/07/18 01:46:44;;;;;;;6.82;2.60;;;;;;;13.58;100.00;101780.88;6253272;28;20045;-78
2023/07/18 01:49:46;;;;;;;4.25;2.30;;;;;;;13.64;100.00;101773.53;6252940;28;20075;-77
2023/07/18 01:52:49;;;;;;;9.35;2.50;;;;;;;13.63;100.00;101770.97;6252707;28;20049;-78
2023/07/18 01:55:50;;;;;;;5.10;2.35;;;;;;;13.63;100.00;101778.91;6252782;28;20052;-78
2023/07/18 01:58:52;;;;;;;6.32;2.97;;;;;;;13.61;100.00;101778.94;6252643;28;20053;-78
2023/07/18 02:01:53;;;;;;;6.53;2.55;;;;;;;13.62;100.00;101777.16;6252535;28;20053;-78
2023/07/18 02:04:55;;;;;;;8.63;2.55;;;;;;;13.59;100.00;101780.84;6252748;28;20041;-78
2023/07/18 02:07:58;;;;;;;5.10;2.58;;;;;;;13.53;100.00;101778.47;6250539;28;20049;-78
2023/07/18 02:11:00;;;;;;;5.55;2.50;;;;;;;13.48;100.00;101779.63;6252503;28;20456;-78
2023/07/18 02:14:03;;;;;;;8.43;2.72;;;;;;;13.47;100.00;101778.78;6252252;28;20050;-78
2023/07/18 02:17:05;;;;;;;7.07;3.20;;;;;;;13.55;100.00;101778.41;6252099;28;20046;-79
2023/07/18 02:20:09;;;;;;;6.28;2.72;;;;;;;13.57;100.00;101776.53;6252144;28;20053;-78
2023/07/18 02:23:12;;;;;;;4.72;2.83;;;;;;;13.59;100.00;101774.69;6251102;28;20052;-78
2023/07/18 02:26:14;;;;;;;5.95;3.03;;;;;;;13.63;100.00;101774.47;6251398;28;20045;-78
2023/07/18 02:29:15;;;;;;;8.13;2.78;;;;;;;13.69;100.00;101774.16;6252185;28;20068;-78
2023/07/18 02:32:17;;;;;;;7.28;3.28;;;;;;;13.68;100.00;101780.38;6251570;28;20045;-78
2023/07/18 02:35:21;;;;;;;7.32;3.30;;;;;;;13.65;100.00;101777.03;6251707;28;20472;-78
2023/07/18 02:38:24;;;;;;;7.50;3.05;;;;;;;13.62;100.00;101777.16;6251948;28;20144;-78
2023/07/18 02:41:26;;;;;;;8.63;3.55;;;;;;;13.59;100.00;101780.84;6251469;28;20053;-78
2023/07/18 02:44:27;;;;;;;7.38;3.35;;;;;;;13.61;100.00;101786.03;6251346;28;20045;-78
2023/07/18 02:47:29;;;;;;;8.93;2.33;;;;;;;13.57;100.00;101779.19;6251496;28;20041;-79
2023/07/18 02:50:30;;;;;;;5.78;2.88;;;;;;;13.56;100.00;101785.41;6251160;28;20060;-78
2023/07/18 02:53:33;;;;;;;6.53;2.92;;;;;;;13.61;100.00;101793.94;6250970;28;20053;-78
2023/07/18 02:56:34;;;;;;;7.82;2.95;;;;;;;13.59;100.00;101793.19;6243488;28;20045;-78
2023/07/18 02:59:36;;;;;;;5.38;2.58;;;;;;;13.59;100.00;101787.91;6251038;28;20041;-78
2023/07/18 03:02:37;;;;;;;13.30;3.30;;;;;;;13.57;100.00;101789.75;6251011;28;20057;-78
2023/07/18 03:05:38;;;;;;;11.95;3.70;;;;;;;13.58;100.00;101794.97;6249517;28;20350;-78
2023/07/18 03:08:41;;;;;;;5.65;3.05;;;;;;;13.58;100.00;101791.44;6245531;28;20046;-78
2023/07/18 03:11:43;;;;;;;6.82;3.03;;;;;;;13.53;100.00;101794.31;6238875;28;20081;-78
2023/07/18 03:14:44;;;;;;;4.47;2.55;;;;;;;13.55;100.00;101799.53;6238204;28;20033;-78
2023/07/18 03:17:46;;;;;;;7.82;3.10;;;;;;;13.55;100.00;101803.03;6234290;28;20076;-78
2023/07/18 03:20:47;;;;;;;7.53;3.40;;;;;;;13.52;100.00;101802.31;6234891;28;20060;-78
2023/07/18 03:23:50;;;;;;;5.05;2.75;;;;;;;13.50;100.00;101810.34;6234140;28;20172;-78
2023/07/18 03:26:52;;;;;;;7.05;3.40;;;;;;;13.45;100.00;101807.06;6232018;28;20129;-79
2023/07/18 03:29:54;;;;;;;7.97;3.78;;;;;;;13.43;100.00;101816.81;6236775;28;20053;-78
2023/07/18 03:32:56;;;;;;;5.57;3.15;;;;;;;13.44;100.00;101811.50;6232799;28;20045;-78
2023/07/18 03:35:58;;;;;;;7.05;2.83;;;;;;;13.43;100.00;101809.75;6233715;28;20048;-79
2023/07/18 03:39:01;;;;;;;10.77;3.63;;;;;;;13.45;100.00;101815.84;6233296;28;20053;-78
2023/07/18 03:42:02;;;;;;;7.75;3.50;;;;;;;13.51;100.00;101805.91;6233872;28;20049;-78
2023/07/18 03:45:05;;;;;;;10.02;3.50;;;;;;;13.55;100.00;101804.81;6232328;28;20353;-78
2023/07/18 03:48:07;;;;;;;6.30;2.97;;;;;;;13.58;100.00;101796.72;6232749;28;20129;-79
2023/07/18 03:51:08;;;;;;;9.18;4.05;;;;;;;13.59;100.00;101806.38;6239434;28;20349;-78
2023/07/18 03:54:11;;;;;;;6.20;3.55;;;;;;;13.60;100.00;101798.38;6250081;28;20045;-78
2023/07/18 03:57:12;;;;;;;11.05;3.40;;;;;;;13.61;100.00;101796.59;6250253;28;20438;-78
2023/07/18 04:00:17;;;;;;;6.82;3.20;;;;;;;13.62;100.00;101793.88;6240456;28;20573;-78
2023/07/18 04:03:18;;;;;;;10.98;3.95;;;;;;;13.60;100.00;101798.38;6232962;28;20049;-79
2023/07/18 04:06:20;;;;;;;7.10;2.92;;;;;;;13.61;100.00;101786.88;6238788;28;20050;-78
2023/07/18 04:09:22;;;;;;;13.63;3.80;;;;;;;13.65;100.00;101792.88;6250434;28;20124;-78
2023/07/18 04:12:24;;;;;;;6.32;3.72;;;;;;;13.66;100.00;101800.72;6249780;28;20046;-78
2023/07/18 04:15:25;;;;;;;7.90;3.42;;;;;;;13.69;100.00;101794.44;6249947;28;20042;-78
2023/07/18 04:18:27;;;;;;;9.70;3.97;;;;;;;13.71;100.00;101803.13;6250167;28;20049;-78
2023/07/18 04:21:28;;;;;;;9.52;3.72;;;;;;;13.73;100.00;101803.91;6249830;28;20048;-78
2023/07/18 04:24:31;;;;;;;8.77;3.75;;;;;;;13.71;100.00;101805.75;6249745;28;20751;-78
2023/07/18 04:27:33;;;;;;;11.90;3.88;;;;;;;13.75;100.00;101804.69;6249861;28;20056;-78
2023/07/18 04:30:35;;;;;;;8.23;3.90;;;;;;;13.76;100.00;101798.47;6242035;28;20056;-79
2023/07/18 04:33:38;;;;;;;9.60;4.28;;;;;;;13.74;100.00;101789.78;6249732;28;20045;-78
2023/07/18 04:36:39;;;;;;;13.77;4.50;;;;;;;13.78;100.00;101793.13;6249761;28;20072;-78
2023/07/18 04:39:42;;;;;;;8.68;4.45;;;;;;;13.82;100.00;101786.75;6249779;28;20053;-78
2023/07/18 04:42:43;;;;;;;8.43;5.05;;;;;;;13.83;100.00;101785.81;6248708;28;20050;-78
2023/07/18 04:45:46;;;;;;;6.70;3.40;;;;;;;13.85;100.00;101781.28;6249627;28;20049;-78
2023/07/18 04:48:48;;;;;;;9.68;4.38;;;;;;;13.88;100.00;101784.66;6253113;28;20056;-78
2023/07/18 04:51:51;;;;;;;14.18;4.82;;;;;;;13.89;100.00;101782.84;6253459;28;20052;-78
2023/07/18 04:54:54;;;;;;;15.02;5.25;;;;;;;13.84;100.00;101779.59;6253833;28;20049;-78
2023/07/18 04:57:55;;;;;;;9.93;4.88;;;;;;;13.86;100.00;101786.53;6252914;28;20045;-78
2023/07/18 05:00:59;;;;;;;14.25;4.95;;;;;;;13.86;100.00;101775.09;6244499;28;20046;-78
2023/07/18 05:04:00;;;;;;;10.65;5.20;;;;;;;13.89;100.00;101777.56;6253360;28;20048;-78
2023/07/18 05:07:02;;;;;;;11.73;4.78;;;;;;;13.93;100.00;101771.19;6253626;28;20433;-78
2023/07/18 05:10:06;;;;;;;10.32;4.45;;;;;;;13.99;100.00;101786.75;6254060;28;20049;-78
2023/07/18 05:13:08;;;;;;;10.50;5.35;;;;;;;14.01;100.00;101786.69;6253460;28;20084;-78
2023/07/18 05:16:09;;;;;;;13.68;6.25;;;;;;;13.99;100.00;101789.41;6253597;28;20052;-78
2023/07/18 05:19:11;;;;;;;18.45;4.45;;;;;;;14.01;100.00;101781.41;6250599;28;20521;-78
2023/07/18 05:22:12;;;;;;;13.57;4.47;;;;;;;14.04;100.00;101783.88;6253293;28;20041;-78
2023/07/18 05:25:16;;;;;;;10.93;4.35;;;;;;;14.05;100.00;101790.88;6253541;28;20048;-78
2023/07/18 05:28:18;;;;;;;8.93;4.18;;;;;;;14.07;100.00;101799.56;6253671;28;20124;-78
2023/07/18 05:31:20;;;;;;;9.82;5.18;;;;;;;14.01;100.00;101805.19;6250142;28;20478;-77
2023/07/18 05:34:22;;;;;;;8.90;4.88;;;;;;;14.04;100.00;101800.59;6252909;28;20119;-80
2023/07/18 05:37:25;;;;;;;16.23;4.50;;;;;;;14.08;100.00;101807.44;6250883;28;20092;-80
2023/07/18 05:40:28;;;;;;;9.07;3.58;;;;;;;14.11;100.00;101809.91;6271336;28;20053;-78
2023/07/18 05:43:29;;;;;;;14.15;4.28;;;;;;;14.13;100.00;101812.50;6271747;28;20052;-78
2023/07/18 05:46:31;;;;;;;9.38;3.72;;;;;;;14.18;100.00;101802.53;6270363;28;20056;-79
2023/07/18 05:49:32;;;;;;;12.70;4.78;;;;;;;14.26;100.00;101804.75;6264991;28;20088;-78
2023/07/18 05:52:34;;;;;;;9.43;4.35;;;;;;;14.34;100.00;101811.38;6276980;28;20445;-78
2023/07/18 05:55:38;;;;;;;8.80;3.67;;;;;;;14.39;100.00;101801.41;6277889;28;20041;-79
2023/07/18 05:58:39;;;;;;;11.05;3.95;;;;;;;14.44;100.00;101806.44;6284218;28;20128;-80
2023/07/18 06:01:41;;;;;;;11.85;3.95;;;;;;;14.49;100.00;101811.53;6285050;28;20045;-79
2023/07/18 06:04:42;;;;;;;9.52;4.70;;;;;;;14.52;100.00;101808.72;6277189;28;20041;-79
2023/07/18 06:07:43;;;;;;;11.93;3.95;;;;;;;14.59;100.00;101799.53;6277262;28;20045;-79
2023/07/18 06:10:46;;;;;;;8.45;3.67;;;;;;;14.65;100.00;101810.63;6285693;28;20041;-78
2023/07/18 06:13:48;;;;;;;9.77;3.78;;;;;;;14.71;100.00;101809.44;6276809;28;20041;-77
2023/07/18 06:16:50;;;;;;;11.23;3.47;;;;;;;14.77;100.00;101801.19;6279195;28;20142;-77
2023/07/18 06:19:51;;;;;;;8.18;3.13;;;;;;;14.82;100.00;101798.31;6291450;28;20056;-77
2023/07/18 06:22:53;;;;;;;7.45;2.67;;;;;;;14.86;100.00;101798.06;6276776;28;20059;-78
2023/07/18 06:25:56;;;;;;;7.85;3.00;;;;;;;14.93;100.00;101793.25;6287728;28;20052;-80
2023/07/18 06:28:58;;;;;;;7.72;2.85;;;;;;;14.99;100.00;101787.66;6290396;28;20048;-79
2023/07/18 06:32:00;;;;;;;5.40;2.58;;;;;;;15.03;100.00;101785.66;6276511;28;20076;-80
2023/07/18 06:35:02;;;;;;;6.40;2.72;;;;;;;15.07;100.00;101793.34;6288894;28;20048;-80
2023/07/18 06:38:04;;;;;;;8.32;3.08;;;;;;;15.14;100.00;101800.03;6281066;28;20059;-79
2023/07/18 06:41:06;;;;;;;6.68;2.97;;;;;;;15.20;100.00;101798.81;6284500;28;20433;-79
2023/07/18 06:44:09;;;;;;;5.70;1.98;;;;;;;15.24;100.00;101795.06;6280579;28;20041;-80
2023/07/18 06:47:10;;;;;;;6.85;2.53;;;;;;;15.28;100.00;101799.25;6288378;28;20072;-80
2023/07/18 06:50:13;;;;;;;3.55;1.92;;;;;;;15.37;100.00;101793.44;6284904;28;20048;-77
2023/07/18 06:53:17;;;;;;;3.22;1.48;;;;;;;15.43;100.00;101798.38;6284066;28;20540;-80
2023/07/18 06:56:20;;;;;;;10.38;1.63;;;;;;;15.45;100.00;101788.56;6276552;28;20126;-80
2023/07/18 06:59:24;;;;;;;3.13;1.65;;;;;;;15.54;100.00;101791.63;6290549;28;20044;-77
2023/07/18 07:02:25;;;;;;;6.00;1.60;;;;;;;15.63;100.00;101793.75;6277452;28;20045;-78
2023/07/18 07:05:27;;;;;;;3.92;1.85;;;;;;;15.69;100.00;101793.44;6284204;28;20041;-77
2023/07/18 07:08:29;;;;;;;6.97;2.10;;;;;;;15.75;100.00;101789.56;6284396;28;20049;-79
2023/07/18 07:11:32;;;;;;;17.20;2.05;;;;;;;15.82;100.00;101794.41;6284142;28;20045;-77
2023/07/18 07:14:33;;;;;;;11.50;1.75;;;;;;;15.83;100.00;101789.97;6275502;28;20041;-77
2023/07/18 07:17:35;;;;;;;4.45;1.50;;;;;;;15.90;100.00;101786.03;6283672;28;20349;-77
2023/07/18 07:20:36;;;;;;;12.13;3.10;;;;;;;15.98;100.00;101789.06;6283910;28;20045;-79
2023/07/18 07:23:37;;;;;;;4.53;1.58;;;;;;;16.04;100.00;101783.41;6267083;28;20049;-78
2023/07/18 07:26:40;;;;;;;4.13;1.52;;;;;;;16.08;100.00;101784.06;6275792;28;20556;-80
2023/07/18 07:29:42;;;;;;;4.25;1.60;;;;;;;16.13;100.00;101792.63;6291364;28;20041;-78
2023/07/18 07:32:44;;;;;;;7.47;1.52;;;;;;;16.16;100.00;101790.59;6283275;28;20041;-78
2023/07/18 07:35:45;;;;;;;3.10;1.30;;;;;;;16.23;100.00;101786.66;6283759;28;20041;-78
2023/07/18 07:38:47;;;;;;;6.43;2.05;;;;;;;16.31;100.00;101782.69;6276637;28;20048;-77
2023/07/18 07:41:50;;;;;;;6.25;1.92;;;;;;;16.31;100.00;101783.53;6290008;28;20044;-78
2023/07/18 07:44:51;;;;;;;5.95;1.70;;;;;;;16.34;100.00;101783.34;6283320;28;20483;-77
2023/07/18 07:47:53;;;;;;;3.15;1.58;;;;;;;16.45;100.00;101777.41;6274975;28;20055;-78
2023/07/18 07:50:54;;;;;;;7.20;1.85;;;;;;;16.53;100.00;101776.91;6275052;28;20377;-78
2023/07/18 07:53:56;;;;;;;6.55;1.50;;;;;;;16.56;100.00;101769.59;6274759;28;20056;-79
2023/07/18 07:56:59;;;;;;;4.55;1.30;;;;;;;16.63;100.00;101775.41;6283464;28;20065;-79
2023/07/18 08:00:00;;;;;;;6.70;1.63;;;;;;;16.70;100.00;101769.59;6274970;28;20045;-81
2023/07/18 08:03:02;;;;;;;4.72;1.58;;;;;;;16.73;100.00;101776.56;6274781;28;20488;-79
2023/07/18 08:06:03;;;;;;;3.28;1.50;;;;;;;16.78;100.00;101774.47;6286785;28;20041;-79
2023/07/18 08:09:05;;;;;;;3.22;1.50;;;;;;;16.88;100.00;101778.25;6279397;28;20433;-78
2023/07/18 08:12:10;;;;;;;6.57;1.85;;;;;;;17.02;100.00;101773.84;6283070;28;20056;-80
2023/07/18 08:15:12;;;;;;;5.53;1.20;;;;;;;17.02;100.00;101769.38;6274890;28;20041;-79
2023/07/18 08:18:13;;;;;;;3.28;1.42;;;;;;;17.12;100.00;101773.19;6279858;28;20049;-79
2023/07/18 08:21:15;;;;;;;2.05;1.10;;;;;;;17.25;100.00;101760.78;6286135;28;20052;-78
2023/07/18 08:24:16;;;;;;;5.22;1.27;;;;;;;17.33;100.00;101756.78;6284554;28;20055;-79
2023/07/18 08:27:19;;;;;;;3.40;1.20;;;;;;;17.42;100.00;101754.38;6290690;28;20555;-79
2023/07/18 08:30:21;;;;;;;3.33;1.30;;;;;;;17.59;100.00;101755.91;6279814;28;20049;-79
2023/07/18 08:33:24;;;;;;;7.03;1.20;;;;;;;17.63;100.00;101753.91;6293717;28;20055;-81
2023/07/18 08:36:26;;;;;;;4.60;1.25;;;;;;;17.61;100.00;101742.50;6289734;28;20044;-79
2023/07/18 08:39:27;;;;;;;3.30;0.75;;;;;;;17.78;100.00;101747.59;6287728;28;20060;-79
2023/07/18 08:42:32;;;;;;;5.45;1.10;;;;;;;17.87;100.00;101744.31;6279042;28;20463;-78
2023/07/18 08:45:37;;;;;;;2.75;0.80;;;;;;;17.89;100.00;101739.72;6287511;28;20423;-78
2023/07/18 08:48:39;;;;;;;2.22;0.90;;;;;;;18.00;100.00;101739.84;6279596;28;20080;-79
2023/07/18 08:51:41;;;;;;;2.72;1.08;;;;;;;18.05;100.00;101736.03;6287106;28;20052;-79
2023/07/18 08:54:42;;;;;;;3.42;1.40;;;;;;;18.12;100.00;101737.28;6287375;28;20041;-80
2023/07/18 08:57:46;;;;;;;3.47;0.82;;;;;;;18.22;100.00;101736.56;6279259;28;20048;-85
2023/07/18 09:00:47;;;;;;;2.20;0.95;;;;;;;18.16;100.00;101725.47;6278950;28;20076;-78
2023/07/18 09:03:49;;;;;;;4.50;1.83;;;;;;;18.16;100.00;101720.16;6278702;28;20055;-78
2023/07/18 09:06:59;;;;;;;6.30;1.20;;;;;;;18.28;100.00;101716.66;6278750;28;20049;-80
2023/07/18 09:10:01;;;;;;;6.00;1.60;;;;;;;18.31;100.00;101707.59;6278689;28;20052;-79
2023/07/18 09:13:06;;;;;;;3.08;1.45;;;;;;;18.33;100.00;101708.34;6286407;28;20373;-78
2023/07/18 09:16:15;;;;;;;3.10;1.25;;;;;;;18.36;100.00;101708.13;6282732;28;20036;-78
2023/07/18 09:19:17;;;;;;;2.78;1.02;;;;;;;18.35;100.00;101703.75;6281400;28;20056;-78
2023/07/18 09:22:18;;;;;;;2.95;1.02;;;;;;;18.52;100.00;101712.22;6278380;28;20076;-76
2023/07/18 09:25:20;;;;;;;1.67;1.10;;;;;;;18.75;100.00;101702.63;6278017;28;20041;-79
2023/07/18 09:28:22;;;;;;;2.05;1.00;;;;;;;18.87;100.00;101705.38;6278410;28;20049;-77
2023/07/18 09:31:27;;;;;;;5.78;1.35;;;;;;;18.94;100.00;101704.81;6277923;28;20476;-83
2023/07/18 09:34:28;;;;;;;3.03;1.10;;;;;;;19.02;100.00;101691.75;6285176;28;20041;-80
2023/07/18 09:37:30;;;;;;;2.20;1.10;;;;;;;19.00;100.00;101696.38;6277954;28;20067;-79
2023/07/18 09:40:31;;;;;;;2.63;1.20;;;;;;;19.02;100.00;101697.09;6278116;28;20567;-78
2023/07/18 09:43:34;;;;;;;2.72;1.08;;;;;;;19.06;100.00;101697.72;6285660;28;20349;-79
2023/07/18 09:46:36;;;;;;;4.25;1.17;;;;;;;19.15;100.00;101694.38;6285905;28;20045;-81
2023/07/18 09:49:39;;;;;;;7.28;1.30;;;;;;;19.15;100.00;101683.72;6285946;28;20047;-79
2023/07/18 09:52:41;;;;;;;3.67;1.30;;;;;;;19.20;100.00;101692.22;6269110;28;20056;-79
2023/07/18 09:55:44;;;;;;;4.05;1.17;;;;;;;19.22;100.00;101682.31;6278240;28;20060;-78
2023/07/18 09:58:47;;;;;;;6.20;1.33;;;;;;;19.26;100.00;101673.13;6293194;28;20051;-79
2023/07/18 10:01:51;;;;;;;10.20;1.60;;;;;;;19.25;100.00;101676.72;6285721;28;20103;-78
2023/07/18 10:04:53;;;;;;;6.03;1.38;;;;;;;19.38;100.00;101679.31;6277290;28;20080;-81
2023/07/18 10:07:55;;;;;;;2.25;1.25;;;;;;;19.44;100.00;101660.22;6285747;28;20048;-78
2023/07/18 10:11:04;;;;;;;2.78;1.17;;;;;;;19.45;100.00;101671.72;6285449;28;20055;-79
2023/07/18 10:14:13;;;;;;;2.05;1.02;;;;;;;19.44;100.00;101668.22;6285432;28;20142;-78
2023/07/18 10:17:25;;;;;;;2.13;1.23;;;;;;;19.50;100.00;101667.72;6277075;28;20045;-78
2023/07/18 10:20:33;;;;;;;3.92;1.20;;;;;;;19.61;100.00;101672.25;6285529;28;20041;-81
2023/07/18 10:23:41;;;;;;;3.33;1.23;;;;;;;19.80;100.00;101671.69;6284817;28;20041;-80
2023/07/18 10:26:43;;;;;;;1.45;1.10;;;;;;;19.85;100.00;101660.66;6277362;28;20041;-80
2023/07/18 10:30:03;;;;;;;4.25;1.77;;;;;;;19.91;100.00;101665.53;6285063;28;20052;-79
2023/07/18 10:33:08;;;;;;;3.05;1.30;;;;;;;19.94;100.00;101660.81;6276608;28;20041;-80
2023/07/18 10:36:24;;;;;;;1.17;1.00;;;;;;;19.96;100.00;101655.34;6285077;28;20045;-78
2023/07/18 10:39:38;;;;;;;1.13;1.02;;;;;;;20.07;100.00;101649.16;6282946;28;20051;-78
2023/07/18 10:42:43;;;;;;;4.15;1.08;;;;;;;20.14;100.00;101642.38;6276152;28;20118;-80
2023/07/18 10:45:46;;;;;;;3.15;1.10;;;;;;;20.16;100.00;101635.94;6284905;28;20048;-79
2023/07/18 10:48:50;;;;;;;1.50;0.85;;;;;;;20.25;100.00;101640.53;6291941;28;20044;-74
2023/07/18 10:51:54;;;;;;;1.98;0.93;;;;;;;20.27;100.00;101635.94;6276108;28;20056;-74
2023/07/18 10:54:57;;;;;;;2.50;1.40;;;;;;;20.36;100.00;101636.19;6275977;28;20044;-75
2023/07/18 10:57:59;;;;;;;6.25;1.80;;;;;;;20.55;100.00;101625.72;6276079;28;20433;-74
2023/07/18 11:01:02;;;;;;;1.77;1.30;;;;;;;20.61;100.00;101621.72;6275989;28;20053;-74
2023/07/18 11:04:07;;;;;;;3.10;1.10;;;;;;;20.72;100.00;101611.84;6275851;28;20361;-75
2023/07/18 11:07:09;;;;;;;4.65;1.30;;;;;;;20.75;97.98;101611.56;6279440;28;20044;-77
2023/07/18 11:10:12;;;;;;;7.72;1.27;;;;;;;20.70;98.18;101615.59;6280186;28;20055;-77
2023/07/18 11:13:14;;;;;;;3.97;1.00;;;;;;;20.63;100.00;101612.59;6275510;28;20045;-76
2023/07/18 11:16:17;;;;;;;3.28;0.93;;;;;;;20.69;99.97;101603.22;6275636;28;20433;-74
2023/07/18 11:19:20;;;;;;;1.13;0.90;;;;;;;20.78;100.00;101607.81;6275751;28;20044;-75
2023/07/18 11:22:21;;;;;;;2.03;1.10;;;;;;;20.87;100.00;101598.19;6275403;28;20048;-76
2023/07/18 11:25:24;;;;;;;2.55;1.27;;;;;;;20.82;100.00;101601.25;6275643;28;20037;-75
2023/07/18 11:28:29;;;;;;;3.10;1.00;;;;;;;20.85;100.00;101598.34;6281413;28;20051;-74
2023/07/18 11:31:39;;;;;;;2.05;1.00;;;;;;;20.96;100.00;101592.91;6277135;28;20045;-74
2023/07/18 11:34:41;;;;;;;2.15;1.00;;;;;;;21.09;100.00;101605.25;6275057;28;20534;-75
2023/07/18 11:37:42;;;;;;;3.08;1.40;;;;;;;21.13;100.00;101593.34;6275447;28;20048;-74
2023/07/18 11:40:44;;;;;;;1.92;1.00;;;;;;;21.19;98.62;101585.63;6283377;28;20045;-74
2023/07/18 11:43:47;;;;;;;1.85;1.30;;;;;;;21.61;100.00;101582.94;6275004;28;20127;-74
2023/07/18 11:46:52;;;;;;;5.93;1.45;;;;;;;21.74;100.00;101583.59;6275102;28;20037;-78
2023/07/18 11:49:53;;;;;;;2.08;1.35;;;;;;;21.94;91.08;101581.00;6276993;28;20049;-77
2023/07/18 11:52:55;;;;;;;1.30;0.80;;;;;;;21.82;90.99;101577.56;6266750;28;20056;-75
2023/07/18 11:55:57;;;;;;;4.65;1.25;;;;;;;21.99;94.49;101581.44;6270711;28;20056;-74
2023/07/18 11:58:58;;;;;;;2.97;0.90;;;;;;;22.04;89.16;101585.41;6274300;28;20369;-75
2023/07/18 12:02:01;;;;;;;2.58;1.05;;;;;;;21.80;89.69;101576.84;6273600;28;20061;-74
2023/07/18 12:05:04;;;;;;;1.85;0.90;;;;;;;21.55;94.44;101569.28;6268644;28;20052;-74
2023/07/18 12:08:05;;;;;;;2.83;1.08;;;;;;;21.41;92.78;101565.97;6268833;28;20361;-74
2023/07/18 12:11:09;;;;;;;2.15;0.95;;;;;;;21.68;88.48;101567.22;6269742;28;20352;-76
2023/07/18 12:14:10;;;;;;;1.35;0.98;;;;;;;21.88;97.25;101574.34;6274333;28;20044;-74
2023/07/18 12:17:13;;;;;;;2.22;0.90;;;;;;;21.83;98.72;101563.19;6274617;28;20353;-73
2023/07/18 12:20:15;;;;;;;1.45;0.73;;;;;;;21.66;99.30;101562.00;6274563;28;20067;-74
2023/07/18 12:23:16;;;;;;;1.35;0.90;;;;;;;21.74;98.60;101562.19;6272363;28;20696;-74
2023/07/18 12:26:17;;;;;;;3.47;0.85;;;;;;;21.87;94.33;101555.75;6279322;28;20459;-74
2023/07/18 12:29:19;;;;;;;1.85;0.75;;;;;;;21.81;97.55;101553.63;6278049;28;20049;-74
2023/07/18 12:32:22;;;;;;;1.02;0.73;;;;;;;21.84;91.66;101543.47;6274191;28;20448;-74
2023/07/18 12:35:23;;;;;;;2.08;0.80;;;;;;;21.79;92.45;101540.38;6274470;28;20052;-75
2023/07/18 12:38:25;;;;;;;3.60;1.02;;;;;;;22.06;88.76;101528.19;6274522;28;20045;-74
2023/07/18 12:41:26;;;;;;;1.42;0.77;;;;;;;22.49;85.78;101511.81;6274263;28;20052;-74
2023/07/18 12:44:38;;;;;;;1.05;0.85;;;;;;;22.92;60.18;101519.41;6274401;28;20045;-76
2023/07/18 12:47:41;;;;;;;3.13;0.80;;;;;;;23.04;60.18;101501.34;6274348;28;20087;-74
2023/07/18 12:50:43;;;;;;;3.45;0.82;;;;;;;22.83;60.38;101500.66;6274475;28;20049;-74
2023/07/18 12:53:45;;;;;;;3.92;0.98;;;;;;;22.67;61.35;101491.38;6264163;28;20051;-78
2023/07/18 12:56:46;;;;;;;1.73;0.90;;;;;;;22.39;62.35;101486.84;6270733;28;20449;-78
2023/07/18 12:59:48;;;;;;;1.92;0.75;;;;;;;22.45;61.69;101473.75;6272672;28;20146;-77
2023/07/18 13:02:51;;;;;;;1.02;0.60;;;;;;;23.04;66.33;101466.50;6282229;28;20048;-77
2023/07/18 13:05:52;;;;;;;1.05;0.70;;;;;;;23.42;59.25;101478.06;6274130;28;20048;-77
2023/07/18 13:08:53;;;;;;;1.17;0.70;;;;;;;23.78;59.60;101471.00;6276542;28;20072;-77
2023/07/18 13:11:55;;;;;;;0.52;0.52;;;;;;;23.99;48.70;101474.28;6278626;28;20056;-80
2023/07/18 13:14:57;;;;;;;1.60;0.65;;;;;;;24.09;50.82;101455.41;6268953;28;20161;-78
2023/07/18 13:18:00;;;;;;;0.85;0.50;;;;;;;24.05;55.53;101457.53;6274076;28;20403;-78
2023/07/18 13:21:01;;;;;;;2.08;0.55;;;;;;;24.11;49.81;101447.19;6286557;28;20048;-77
2023/07/18 13:24:03;;;;;;;3.55;0.98;;;;;;;24.42;50.40;101461.13;6283347;28;20383;-76
2023/07/18 13:27:04;;;;;;;2.08;0.80;;;;;;;24.47;48.64;101456.94;6275268;28;20040;-78
2023/07/18 13:30:07;;;;;;;2.70;0.90;;;;;;;24.38;49.92;101448.97;6278387;28;20056;-77
2023/07/18 13:33:10;;;;;;;1.83;1.30;;;;;;;24.48;47.57;101453.28;6274572;28;20334;-79
2023/07/18 13:36:12;;;;;;;2.03;0.80;;;;;;;24.65;48.74;101445.34;6275623;28;20052;-78
2023/07/18 13:39:13;;;;;;;0.95;0.68;;;;;;;24.59;49.72;101435.22;6276131;28;20049;-78
2023/07/18 13:42:15;;;;;;;1.20;0.50;;;;;;;24.47;48.02;101440.84;6275197;28;20057;-77
2023/07/18 13:45:16;;;;;;;2.58;0.63;;;;;;;24.51;48.07;101439.53;6275130;28;20065;-77
2023/07/18 13:48:19;;;;;;;2.30;0.68;;;;;;;24.68;47.56;101431.59;6275896;28;20044;-78
2023/07/18 13:51:21;;;;;;;1.17;0.70;;;;;;;24.94;49.05;101431.63;6276680;28;20055;-77
2023/07/18 13:54:22;;;;;;;1.42;0.68;;;;;;;25.17;47.89;101430.09;6267569;28;20049;-78
2023/07/18 13:57:23;;;;;;;0.70;0.60;;;;;;;25.21;47.04;101433.31;6275754;28;20045;-78